createdAt,value
2023-04-15T00:05:18.452Z,3.53
2023-04-15T00:11:20.103Z,4.00
2023-04-15T00:17:21.544Z,4.55
2023-04-15T00:23:23.401Z,5.53
2023-04-15T00:29:25.289Z,4.25
2023-04-15T00:35:26.878Z,4.90
2023-04-15T00:41:28.346Z,5.33
2023-04-15T00:47:30.472Z,4.55
2023-04-15T00:53:31.897Z,4.30
2023-04-15T00:59:33.864Z,4.03
2023-04-15T01:05:35.577Z,4.20
2023-04-15T01:11:37.119Z,4.30
2023-04-15T01:17:39.244Z,3.70
2023-04-15T01:23:43.222Z,4.13
2023-04-15T01:29:44.667Z,4.20
2023-04-15T01:35:47.166Z,4.28
2023-04-15T01:41:49.711Z,4.07
2023-04-15T01:47:51.380Z,3.95
2023-04-15T01:53:53.410Z,3.93
2023-04-15T01:59:54.938Z,3.72
2023-04-15T02:05:56.676Z,5.43
2023-04-15T02:11:58.277Z,4.60
2023-04-15T02:18:00.873Z,4.00
2023-04-15T02:24:02.543Z,3.53
2023-04-15T02:30:04.195Z,3.33
2023-04-15T02:36:06.330Z,3.08
2023-04-15T02:42:07.845Z,3.10
2023-04-15T02:48:09.586Z,3.10
2023-04-15T02:54:11.426Z,2.60
2023-04-15T03:00:14.112Z,2.55
2023-04-15T03:06:17.642Z,3.00
2023-04-15T03:12:19.153Z,2.53
2023-04-15T03:18:20.596Z,3.05
2023-04-15T03:24:22.303Z,2.90
2023-04-15T03:30:24.196Z,3.75
2023-04-15T03:36:26.224Z,3.88
2023-04-15T03:42:27.738Z,3.97
2023-04-15T03:48:29.263Z,4.80
2023-04-15T03:54:30.950Z,4.10
2023-04-15T04:00:32.399Z,4.28
2023-04-15T04:06:33.924Z,4.15
2023-04-15T04:12:35.435Z,4.60
2023-04-15T04:18:36.804Z,4.40
2023-04-15T04:24:38.174Z,4.40
2023-04-15T04:30:40.002Z,4.80
2023-04-15T04:36:41.502Z,3.92
2023-04-15T04:42:42.919Z,3.87
2023-04-15T04:48:46.613Z,4.18
2023-04-15T04:54:48.593Z,4.53
2023-04-15T05:00:50.154Z,4.70
2023-04-15T05:06:51.687Z,4.53
2023-04-15T05:12:53.088Z,4.77
2023-04-15T05:18:54.483Z,4.93
2023-04-15T05:24:56.198Z,4.50
2023-04-15T05:30:57.852Z,4.43
2023-04-15T05:36:59.499Z,4.60
2023-04-15T05:43:01.126Z,4.47
2023-04-15T05:49:02.804Z,4.30
2023-04-15T05:55:04.559Z,3.93
2023-04-15T06:01:06.411Z,3.70
2023-04-15T06:07:07.842Z,3.47
2023-04-15T06:13:09.252Z,3.20
2023-04-15T06:19:10.773Z,3.42
2023-04-15T06:25:12.276Z,2.87
2023-04-15T06:31:14.127Z,3.40
2023-04-15T06:37:16.057Z,3.30
2023-04-15T06:43:17.425Z,3.43
2023-04-15T06:49:18.818Z,3.28
2023-04-15T06:55:20.652Z,3.47
2023-04-15T07:01:22.451Z,4.22
2023-04-15T07:07:23.948Z,4.10
2023-04-15T07:13:25.397Z,4.43
2023-04-15T07:19:27.109Z,4.43
2023-04-15T07:25:28.510Z,4.57
2023-04-15T07:31:30.160Z,4.38
2023-04-15T07:37:32.193Z,4.32
2023-04-15T07:43:33.728Z,5.07
2023-04-15T07:49:35.161Z,5.88
2023-04-15T07:55:36.549Z,5.70
2023-04-15T08:01:38.904Z,5.80
2023-04-15T08:07:40.743Z,6.35
2023-04-15T08:13:42.523Z,6.23
2023-04-15T08:19:44.006Z,6.05
2023-04-15T08:25:45.441Z,5.50
2023-04-15T08:31:47.638Z,6.40
2023-04-15T08:37:49.200Z,7.03
2023-04-15T08:44:04.217Z,7.13
2023-04-15T08:50:09.044Z,7.45
2023-04-15T08:56:11.234Z,8.07
2023-04-15T09:02:12.710Z,8.05
2023-04-15T09:08:14.741Z,7.68
2023-04-15T09:14:16.922Z,7.90
2023-04-15T09:20:21.354Z,8.05
2023-04-15T09:26:31.819Z,9.13
2023-04-15T09:32:33.335Z,10.35
2023-04-15T09:38:34.955Z,9.63
2023-04-15T09:44:37.579Z,10.47
2023-04-15T09:50:41.198Z,10.60
2023-04-15T09:56:43.011Z,11.10
2023-04-15T10:02:47.052Z,11.77
2023-04-15T10:08:48.953Z,12.00
2023-04-15T10:14:56.625Z,12.37
2023-04-15T10:21:00.517Z,13.30
2023-04-15T10:27:03.759Z,13.37
2023-04-15T10:33:05.682Z,13.57
2023-04-15T10:39:26.078Z,14.52
2023-04-15T10:45:37.348Z,13.47
2023-04-15T10:51:42.798Z,14.18
2023-04-15T10:57:44.555Z,13.67
2023-04-15T11:03:46.563Z,13.95
2023-04-15T11:09:48.104Z,14.88
2023-04-15T11:15:49.877Z,15.30
2023-04-15T11:21:51.838Z,14.32
2023-04-15T11:27:54.516Z,14.37
2023-04-15T11:33:57.194Z,13.63
2023-04-15T11:39:58.895Z,13.88
2023-04-15T11:46:01.883Z,12.70
2023-04-15T11:52:10.450Z,13.70
2023-04-15T11:58:15.107Z,12.87
2023-04-15T12:04:23.232Z,12.35
2023-04-15T12:10:26.672Z,11.25
2023-04-15T12:16:28.739Z,11.90
2023-04-15T12:22:30.555Z,11.82
2023-04-15T12:28:32.057Z,11.20
2023-04-15T12:34:34.842Z,10.70
2023-04-15T12:40:36.432Z,9.77
2023-04-15T12:46:38.242Z,9.97
2023-04-15T12:52:39.836Z,9.73
2023-04-15T12:58:41.312Z,9.40
2023-04-15T13:04:42.859Z,9.20
2023-04-15T13:10:44.390Z,9.60
2023-04-15T13:16:45.867Z,8.30
2023-04-15T13:22:47.313Z,8.90
2023-04-15T13:28:48.900Z,9.10
2023-04-15T13:34:50.593Z,6.88
2023-04-15T13:40:52.453Z,7.47
2023-04-15T13:46:54.063Z,7.73
2023-04-15T13:52:55.530Z,7.30
2023-04-15T13:58:58.961Z,8.70
2023-04-15T14:05:00.741Z,8.32
2023-04-15T14:11:02.190Z,8.07
2023-04-15T14:17:04.466Z,7.87
2023-04-15T14:23:05.948Z,8.18
2023-04-15T14:29:07.484Z,7.73
2023-04-15T14:35:09.133Z,7.45
2023-04-15T14:41:10.660Z,7.13
2023-04-15T14:47:12.846Z,7.37
2023-04-15T14:53:14.364Z,7.57
2023-04-15T14:59:15.841Z,7.33
2023-04-15T15:05:17.457Z,7.03
2023-04-15T15:11:19.027Z,7.57
2023-04-15T15:17:20.684Z,7.43
2023-04-15T15:23:22.122Z,7.32
2023-04-15T15:29:23.733Z,7.27
2023-04-15T15:35:25.967Z,7.45
2023-04-15T15:41:27.489Z,7.63
2023-04-15T15:47:28.948Z,7.20
2023-04-15T15:53:30.460Z,7.47
2023-04-15T15:59:33.092Z,7.73
2023-04-15T16:05:35.042Z,7.75
2023-04-15T16:11:36.603Z,7.97
2023-04-15T16:17:38.102Z,8.47
2023-04-15T16:23:39.794Z,8.73
2023-04-15T16:29:41.648Z,8.63
2023-04-15T16:35:43.115Z,8.32
2023-04-15T16:41:44.742Z,8.75
2023-04-15T16:47:46.193Z,9.50
2023-04-15T16:53:48.423Z,8.63
2023-04-15T16:59:49.830Z,9.13
2023-04-15T17:05:51.293Z,8.95
2023-04-15T17:11:52.765Z,8.98
2023-04-15T17:17:54.337Z,9.00
2023-04-15T17:23:56.047Z,9.35
2023-04-15T17:29:57.794Z,9.80
2023-04-15T17:36:19.236Z,19.17
2023-04-15T17:42:41.315Z,18.48
2023-04-15T17:49:03.348Z,9.70
2023-04-15T17:55:25.225Z,9.90
2023-04-15T18:01:46.757Z,9.03
2023-04-15T18:08:08.312Z,9.88
2023-04-15T18:14:34.621Z,9.25
2023-04-15T18:20:56.301Z,9.63
2023-04-15T18:26:59.042Z,10.18
2023-04-15T18:33:00.891Z,10.40
2023-04-15T18:39:03.236Z,10.52
2023-04-15T18:45:05.429Z,11.85
2023-04-15T18:51:07.155Z,10.63
2023-04-15T18:57:08.974Z,13.82
2023-04-15T19:03:11.687Z,15.63
2023-04-15T19:09:13.340Z,15.95
2023-04-15T19:15:14.908Z,14.45
2023-04-15T19:21:16.628Z,11.83
2023-04-15T19:27:18.321Z,18.13
2023-04-15T19:33:19.983Z,12.87
2023-04-15T19:39:22.061Z,11.88
2023-04-15T19:45:23.852Z,12.40
2023-04-15T19:51:26.624Z,12.13
2023-04-15T19:57:28.514Z,11.88
2023-04-15T20:03:30.720Z,11.73
2023-04-15T20:09:32.350Z,11.90
2023-04-15T20:15:33.870Z,12.00
2023-04-15T20:21:35.993Z,13.07
2023-04-15T20:27:37.463Z,13.63
2023-04-15T20:33:39.053Z,13.10
2023-04-15T20:39:40.732Z,13.50
2023-04-15T20:45:42.274Z,13.80
2023-04-15T20:51:43.774Z,13.40
2023-04-15T20:57:45.362Z,14.43
2023-04-15T21:03:47.150Z,13.93
2023-04-15T21:09:49.217Z,13.13
2023-04-15T21:15:53.363Z,13.43
2023-04-15T21:21:54.835Z,13.13
2023-04-15T21:27:56.216Z,13.43
2023-04-15T21:33:57.668Z,13.30
2023-04-15T21:39:59.477Z,12.95
2023-04-15T21:46:22.313Z,13.80
2023-04-15T21:52:22.349Z,14.43
2023-04-15T21:58:23.776Z,14.75
2023-04-15T22:04:25.574Z,14.00
2023-04-15T22:10:27.295Z,13.88
2023-04-15T22:16:28.895Z,13.88
2023-04-15T22:22:44.241Z,14.63
2023-04-15T22:28:46.195Z,14.88
2023-04-15T22:34:47.679Z,14.60
2023-04-15T22:40:49.092Z,14.80
2023-04-15T22:46:51.389Z,15.88
2023-04-15T22:52:52.780Z,15.63
2023-04-15T22:58:54.209Z,15.30
2023-04-15T23:04:55.822Z,16.37
2023-04-15T23:10:57.483Z,15.30
2023-04-15T23:16:59.039Z,15.35
2023-04-15T23:23:00.545Z,14.60
2023-04-15T23:29:02.016Z,14.55
2023-04-15T23:35:03.910Z,16.03
2023-04-15T23:41:05.567Z,14.98
2023-04-15T23:47:07.156Z,15.30
2023-04-15T23:53:08.589Z,15.10
2023-04-15T23:59:10.149Z,15.50
